Time;durP1;ratioP1;P1;durP2;ratioP2;P2;SDS_P1;SDS_P2;PMS_P1;PMS_P2;Temp;Humidity;BMP_temperature;BMP_pressure;BME280_temperature;BME280_humidity;BME280_pressure;Samples;Min_cycle;Max_cycle;Signal;HPM_P1;HPM_P2
2021/03/07 00:00:39;;;;;;;8.20;5.50;;;;;;;;;;5074560;28;20193;-85
2021/03/07 00:03:15;;;;;;;5.80;4.73;;;;;;;;;;5051888;28;20255;-85
2021/03/07 00:05:41;;;;;;;7.90;4.90;;;;;;;;;;5034430;28;20472;-85
2021/03/07 00:08:07;;;;;;;7.53;5.30;;;;;;;;;;5048223;28;20411;-85
2021/03/07 00:10:33;;;;;;;6.37;4.80;;;;;;;;;;5071001;28;20443;-85
2021/03/07 00:12:59;;;;;;;6.57;4.80;;;;;;;;;;5061071;28;20205;-85
2021/03/07 00:15:26;;;;;;;6.60;4.83;;;;;;;;;;5065674;28;20426;-85
2021/03/07 00:17:52;;;;;;;6.40;5.23;;;;;;;;;;5048360;28;20200;-85
2021/03/07 00:20:19;;;;;;;8.37;4.93;;;;;;;;;;5043035;28;20232;-85
2021/03/07 00:22:45;;;;;;;8.73;5.30;;;;;;;;;;5052055;28;20532;-85
2021/03/07 00:25:12;;;;;;;6.57;4.80;;;;;;;;;;5072517;28;20571;-85
2021/03/07 00:27:38;;;;;;;7.30;5.40;;;;;;;;;;5052341;28;20184;-85
2021/03/07 00:30:05;;;;;;;8.10;5.40;;;;;;;;;;5047937;28;20189;-85
2021/03/07 00:32:31;;;;;;;6.57;4.70;;;;;;;;;;5057930;28;20575;-85
2021/03/07 00:34:57;;;;;;;7.07;5.17;;;;;;;;;;5051912;28;20441;-85
2021/03/07 00:37:23;;;;;;;8.83;5.67;;;;;;;;;;5055089;28;20423;-85
2021/03/07 00:39:49;;;;;;;6.63;4.87;;;;;;;;;;5051625;28;20465;-85
2021/03/07 00:42:15;;;;;;;6.90;5.40;;;;;;;;;;5057330;28;20415;-85
2021/03/07 00:44:41;;;;;;;6.63;5.70;;;;;;;;;;5057353;28;20411;-85
2021/03/07 00:47:07;;;;;;;7.10;5.03;;;;;;;;;;5056300;28;20406;-85
2021/03/07 00:49:34;;;;;;;7.17;5.80;;;;;;;;;;5069371;28;20605;-85
2021/03/07 00:52:00;;;;;;;7.67;5.37;;;;;;;;;;5053535;28;20229;-85
2021/03/07 00:54:26;;;;;;;6.70;5.83;;;;;;;;;;5054113;28;20410;-85
2021/03/07 00:56:53;;;;;;;7.97;5.70;;;;;;;;;;5054595;28;20624;-85
2021/03/07 00:59:19;;;;;;;8.53;6.40;;;;;;;;;;5033323;28;20459;-85
2021/03/07 01:01:45;;;;;;;6.73;5.37;;;;;;;;;;5069779;28;20435;-85
2021/03/07 01:04:11;;;;;;;6.57;5.10;;;;;;;;;;5059741;28;20443;-85
2021/03/07 01:06:37;;;;;;;7.60;5.50;;;;;;;;;;5036446;28;20589;-85
2021/03/07 01:09:04;;;;;;;7.43;6.33;;;;;;;;;;5067593;28;20439;-85
2021/03/07 01:11:30;;;;;;;7.23;5.37;;;;;;;;;;5047360;28;20419;-85
2021/03/07 01:13:56;;;;;;;10.13;5.77;;;;;;;;;;5055229;28;20777;-85
2021/03/07 01:16:22;;;;;;;9.20;6.00;;;;;;;;;;5026355;28;20422;-85
2021/03/07 01:18:48;;;;;;;7.60;6.00;;;;;;;;;;5046639;28;20940;-85
2021/03/07 01:21:14;;;;;;;8.67;5.90;;;;;;;;;;5041162;28;20678;-85
2021/03/07 01:23:40;;;;;;;6.37;4.83;;;;;;;;;;5062594;28;20422;-85
2021/03/07 01:26:06;;;;;;;8.10;4.63;;;;;;;;;;5038034;28;20416;-85
2021/03/07 01:28:32;;;;;;;7.27;5.77;;;;;;;;;;5055527;28;20778;-85
2021/03/07 01:30:58;;;;;;;7.50;5.43;;;;;;;;;;5042273;28;20423;-85
2021/03/07 01:33:24;;;;;;;7.53;5.23;;;;;;;;;;5060250;28;20448;-85
2021/03/07 01:35:51;;;;;;;6.90;5.43;;;;;;;;;;5065763;28;20490;-85
2021/03/07 01:38:17;;;;;;;8.03;5.23;;;;;;;;;;5052149;28;20428;-85
2021/03/07 01:40:51;;;;;;;7.13;5.07;;;;;;;;;;5036445;28;20452;-85
2021/03/07 01:43:17;;;;;;;8.03;5.57;;;;;;;;;;5034660;28;20427;-85
2021/03/07 01:45:43;;;;;;;6.63;5.27;;;;;;;;;;5036135;28;20412;-85
2021/03/07 01:48:11;;;;;;;6.43;5.37;;;;;;;;;;5031913;28;20411;-85
2021/03/07 01:50:39;;;;;;;8.83;6.27;;;;;;;;;;5045143;28;20217;-85
2021/03/07 01:53:05;;;;;;;7.90;4.97;;;;;;;;;;5040883;28;20231;-85
2021/03/07 01:55:32;;;;;;;6.87;5.57;;;;;;;;;;5060236;28;20435;-85
2021/03/07 01:58:02;;;;;;;6.40;5.57;;;;;;;;;;5015848;28;20802;-85
2021/03/07 02:00:28;;;;;;;8.20;5.70;;;;;;;;;;5026080;28;20448;-85
2021/03/07 02:02:54;;;;;;;9.50;6.53;;;;;;;;;;5049338;28;20421;-85
2021/03/07 02:05:21;;;;;;;8.03;5.50;;;;;;;;;;5054926;28;20434;-85
2021/03/07 02:07:47;;;;;;;6.57;5.67;;;;;;;;;;5033729;28;20415;-85
2021/03/07 02:10:17;;;;;;;8.13;5.93;;;;;;;;;;5051980;28;20204;-85
2021/03/07 02:12:43;;;;;;;7.40;5.50;;;;;;;;;;5027411;28;20436;-85
2021/03/07 02:15:09;;;;;;;6.27;5.67;;;;;;;;;;5034503;28;20423;-85
2021/03/07 02:17:36;;;;;;;6.57;5.73;;;;;;;;;;5067176;28;20475;-85
2021/03/07 02:20:03;;;;;;;7.07;5.57;;;;;;;;;;5040818;28;20205;-85
2021/03/07 02:22:40;;;;;;;7.33;5.27;;;;;;;;;;5066613;28;20953;-85
2021/03/07 02:25:08;;;;;;;7.07;5.70;;;;;;;;;;5051505;28;20411;-85
2021/03/07 02:27:35;;;;;;;9.00;5.33;;;;;;;;;;5067152;28;20442;-85
2021/03/07 02:30:01;;;;;;;6.30;5.60;;;;;;;;;;5040572;28;20501;-85
2021/03/07 02:32:29;;;;;;;8.77;5.80;;;;;;;;;;5030609;28;20427;-85
2021/03/07 02:34:56;;;;;;;8.17;5.53;;;;;;;;;;5039702;28;20423;-85
2021/03/07 02:37:23;;;;;;;6.67;5.53;;;;;;;;;;5054651;28;20430;-85
2021/03/07 02:39:50;;;;;;;8.33;5.53;;;;;;;;;;5034499;28;20541;-85
2021/03/07 02:42:18;;;;;;;5.87;5.20;;;;;;;;;;5033995;28;20474;-85
2021/03/07 02:44:50;;;;;;;6.37;5.57;;;;;;;;;;5033895;28;20499;-85
2021/03/07 02:47:17;;;;;;;6.70;5.27;;;;;;;;;;5027755;28;20459;-85
2021/03/07 02:49:43;;;;;;;7.60;5.93;;;;;;;;;;5043326;28;20455;-85
2021/03/07 02:52:10;;;;;;;9.37;5.90;;;;;;;;;;5049399;28;20426;-85
2021/03/07 02:54:37;;;;;;;7.20;5.87;;;;;;;;;;5053076;28;20499;-85
2021/03/07 02:57:04;;;;;;;9.43;5.80;;;;;;;;;;5071704;28;20429;-85
2021/03/07 02:59:31;;;;;;;7.10;5.07;;;;;;;;;;5053998;28;20427;-85
2021/03/07 03:02:01;;;;;;;8.13;5.80;;;;;;;;;;5053640;28;20505;-85
2021/03/07 03:04:29;;;;;;;6.60;5.80;;;;;;;;;;5066024;28;20422;-85
2021/03/07 03:06:55;;;;;;;6.07;5.30;;;;;;;;;;5060548;28;20424;-85
2021/03/07 03:09:22;;;;;;;7.07;5.70;;;;;;;;;;5072375;28;20893;-85
2021/03/07 03:11:51;;;;;;;6.30;5.43;;;;;;;;;;5053752;28;20415;-85
2021/03/07 03:14:17;;;;;;;7.83;5.70;;;;;;;;;;5049235;28;20453;-84
2021/03/07 03:16:48;;;;;;;7.73;5.43;;;;;;;;;;5055753;28;20535;-85
2021/03/07 03:19:15;;;;;;;6.57;5.50;;;;;;;;;;5052614;28;20423;-85
2021/03/07 03:21:43;;;;;;;7.93;5.73;;;;;;;;;;5053283;28;20918;-85
2021/03/07 03:24:09;;;;;;;10.50;5.63;;;;;;;;;;5053606;28;20483;-85
2021/03/07 03:26:35;;;;;;;7.63;5.53;;;;;;;;;;5053797;28;20422;-85
2021/03/07 03:29:05;;;;;;;7.43;4.93;;;;;;;;;;5070840;28;20415;-85
2021/03/07 03:31:32;;;;;;;5.97;5.00;;;;;;;;;;5052074;28;20431;-85
2021/03/07 03:33:58;;;;;;;7.67;5.53;;;;;;;;;;5053021;28;21004;-85
2021/03/07 03:36:24;;;;;;;7.83;5.80;;;;;;;;;;5050725;28;20411;-85
2021/03/07 03:38:53;;;;;;;7.00;5.30;;;;;;;;;;5051764;28;20483;-85
2021/03/07 03:41:21;;;;;;;5.87;5.23;;;;;;;;;;5043151;28;20447;-85
2021/03/07 03:43:47;;;;;;;7.10;5.23;;;;;;;;;;5052134;28;20434;-85
2021/03/07 03:46:14;;;;;;;6.20;5.50;;;;;;;;;;5052216;28;20407;-85
2021/03/07 03:48:42;;;;;;;7.90;5.47;;;;;;;;;;5053519;28;20809;-85
2021/03/07 03:51:09;;;;;;;6.17;5.27;;;;;;;;;;5050751;28;20422;-84
2021/03/07 03:53:36;;;;;;;6.43;5.63;;;;;;;;;;5052897;28;20914;-85
2021/03/07 03:56:03;;;;;;;6.47;5.57;;;;;;;;;;5043751;28;20424;-85
2021/03/07 03:58:30;;;;;;;6.13;5.13;;;;;;;;;;5043606;28;20422;-85
2021/03/07 04:00:57;;;;;;;6.17;5.20;;;;;;;;;;5052099;28;20454;-85
2021/03/07 04:03:24;;;;;;;6.57;5.07;;;;;;;;;;5052628;28;20766;-85
2021/03/07 04:05:52;;;;;;;7.37;5.00;;;;;;;;;;5055372;28;20529;-85
2021/03/07 04:08:19;;;;;;;7.27;5.60;;;;;;;;;;5038778;28;20505;-85
2021/03/07 04:10:45;;;;;;;7.17;5.77;;;;;;;;;;5056165;28;20435;-85
2021/03/07 04:13:13;;;;;;;6.10;5.30;;;;;;;;;;5072251;28;20428;-85
2021/03/07 04:15:40;;;;;;;5.07;4.57;;;;;;;;;;5055606;28;20464;-85
2021/03/07 04:18:06;;;;;;;6.57;5.20;;;;;;;;;;5056625;28;20864;-85
2021/03/07 04:20:33;;;;;;;6.57;5.83;;;;;;;;;;5056679;28;20454;-85
2021/03/07 04:22:59;;;;;;;6.47;5.33;;;;;;;;;;5056068;28;20473;-85
2021/03/07 04:25:25;;;;;;;7.83;5.57;;;;;;;;;;5057451;28;20411;-85
2021/03/07 04:27:51;;;;;;;8.07;5.57;;;;;;;;;;5047436;28;20452;-85
2021/03/07 04:30:18;;;;;;;7.27;5.40;;;;;;;;;;5055973;28;20971;-85
2021/03/07 04:32:44;;;;;;;7.50;5.90;;;;;;;;;;5055186;28;20506;-85
2021/03/07 04:35:12;;;;;;;6.60;5.53;;;;;;;;;;5055281;28;20415;-85
2021/03/07 04:37:38;;;;;;;6.07;4.90;;;;;;;;;;5053162;28;20422;-85
2021/03/07 04:40:05;;;;;;;7.40;5.57;;;;;;;;;;5047427;28;20451;-85
2021/03/07 04:42:31;;;;;;;6.20;4.87;;;;;;;;;;5050523;28;20514;-85
2021/03/07 04:44:57;;;;;;;7.57;5.33;;;;;;;;;;5054269;28;20933;-85
2021/03/07 04:47:23;;;;;;;6.90;4.83;;;;;;;;;;5043948;28;20452;-85
2021/03/07 04:49:49;;;;;;;6.97;5.60;;;;;;;;;;5043920;28;20471;-85
2021/03/07 04:52:15;;;;;;;9.63;5.87;;;;;;;;;;5052294;28;20193;-85
2021/03/07 04:54:41;;;;;;;8.00;5.40;;;;;;;;;;5054160;28;20783;-85
2021/03/07 04:57:07;;;;;;;7.60;5.47;;;;;;;;;;5053420;28;20427;-85
2021/03/07 04:59:33;;;;;;;7.30;5.40;;;;;;;;;;5051828;28;20419;-85
2021/03/07 05:02:00;;;;;;;5.77;5.17;;;;;;;;;;5051090;28;20519;-85
2021/03/07 05:04:26;;;;;;;7.17;5.43;;;;;;;;;;5049802;28;20916;-85
2021/03/07 05:06:52;;;;;;;9.10;6.13;;;;;;;;;;5049187;28;20435;-85
2021/03/07 05:09:18;;;;;;;9.20;5.47;;;;;;;;;;5051670;28;20428;-85
2021/03/07 05:11:44;;;;;;;7.83;5.10;;;;;;;;;;5051755;28;20423;-85
2021/03/07 05:14:10;;;;;;;6.33;5.23;;;;;;;;;;5049558;28;20443;-85
2021/03/07 05:16:36;;;;;;;10.33;5.80;;;;;;;;;;5040335;28;20787;-85
2021/03/07 05:19:04;;;;;;;6.80;5.80;;;;;;;;;;5050017;28;20451;-85
2021/03/07 05:21:30;;;;;;;6.63;5.10;;;;;;;;;;5051359;28;20451;-85
2021/03/07 05:23:59;;;;;;;6.33;4.93;;;;;;;;;;5051679;28;20415;-85
2021/03/07 05:26:27;;;;;;;5.73;4.47;;;;;;;;;;5042640;28;20433;-85
2021/03/07 05:28:53;;;;;;;5.77;4.77;;;;;;;;;;5068302;28;20424;-85
2021/03/07 05:31:19;;;;;;;7.33;5.10;;;;;;;;;;5067549;28;20459;-85
2021/03/07 05:33:45;;;;;;;6.47;5.87;;;;;;;;;;5052100;28;20416;-85
2021/03/07 05:36:11;;;;;;;6.20;5.20;;;;;;;;;;5051157;28;20443;-85
2021/03/07 05:38:38;;;;;;;6.67;5.10;;;;;;;;;;5053064;28;20485;-85
2021/03/07 05:41:04;;;;;;;5.97;5.37;;;;;;;;;;5051628;28;20546;-85
2021/03/07 05:43:30;;;;;;;7.63;5.73;;;;;;;;;;5051851;28;20486;-85
2021/03/07 05:45:56;;;;;;;7.80;5.50;;;;;;;;;;5051221;28;20562;-85
2021/03/07 05:48:22;;;;;;;7.00;5.43;;;;;;;;;;5049844;28;21248;-85
2021/03/07 05:50:49;;;;;;;6.37;5.50;;;;;;;;;;5042191;28;20568;-85
2021/03/07 05:53:15;;;;;;;7.63;5.53;;;;;;;;;;5072922;28;20426;-85
2021/03/07 05:55:41;;;;;;;7.20;5.77;;;;;;;;;;5053577;28;20415;-85
2021/03/07 05:58:07;;;;;;;10.13;5.33;;;;;;;;;;5072600;28;20454;-85
2021/03/07 06:00:34;;;;;;;5.47;4.93;;;;;;;;;;5047727;28;20994;-85
2021/03/07 06:03:00;;;;;;;5.57;4.87;;;;;;;;;;5054269;28;20415;-85
2021/03/07 06:05:26;;;;;;;7.30;5.57;;;;;;;;;;5054747;28;20419;-85
2021/03/07 06:07:52;;;;;;;6.73;5.30;;;;;;;;;;5051661;28;20421;-85
2021/03/07 06:10:19;;;;;;;7.93;5.47;;;;;;;;;;5047699;28;20447;-85
2021/03/07 06:13:10;;;;;;;6.73;5.63;;;;;;;;;;5054381;28;20430;-85
2021/03/07 06:15:36;;;;;;;6.40;5.47;;;;;;;;;;5064310;28;20906;-85
2021/03/07 06:18:11;;;;;;;7.97;5.17;;;;;;;;;;5055130;28;20457;-85
2021/03/07 06:20:37;;;;;;;6.73;5.97;;;;;;;;;;5071288;28;20465;-85
2021/03/07 06:23:03;;;;;;;6.07;5.10;;;;;;;;;;5054273;28;20407;-85
2021/03/07 06:25:29;;;;;;;5.97;5.37;;;;;;;;;;5053603;28;20411;-85
2021/03/07 06:27:56;;;;;;;6.93;5.20;;;;;;;;;;5055496;28;20450;-85
2021/03/07 06:30:24;;;;;;;5.83;5.23;;;;;;;;;;5039248;28;20420;-85
2021/03/07 06:32:55;;;;;;;6.77;5.20;;;;;;;;;;5052100;28;20427;-85
2021/03/07 06:35:22;;;;;;;7.67;5.33;;;;;;;;;;5053018;28;20419;-85
2021/03/07 06:37:59;;;;;;;6.87;5.37;;;;;;;;;;5052834;28;20435;-85
2021/03/07 06:40:25;;;;;;;6.83;5.53;;;;;;;;;;5042990;28;20557;-85
2021/03/07 06:42:51;;;;;;;6.57;5.63;;;;;;;;;;5043740;28;20424;-85
2021/03/07 06:45:17;;;;;;;7.20;5.50;;;;;;;;;;5044785;28;20582;-85
2021/03/07 06:47:54;;;;;;;5.57;4.73;;;;;;;;;;5041942;28;20426;-85
2021/03/07 06:50:20;;;;;;;6.40;4.80;;;;;;;;;;5053611;28;20496;-85
2021/03/07 06:52:53;;;;;;;5.87;5.07;;;;;;;;;;5052876;28;20523;-85
2021/03/07 06:55:20;;;;;;;7.30;5.53;;;;;;;;;;5049803;28;20749;-85
2021/03/07 06:57:47;;;;;;;7.17;5.83;;;;;;;;;;5071437;28;20445;-85
2021/03/07 07:00:13;;;;;;;6.07;5.43;;;;;;;;;;5052407;28;20513;-85
2021/03/07 07:02:39;;;;;;;6.43;5.27;;;;;;;;;;5072026;28;20427;-85
2021/03/07 07:05:06;;;;;;;7.10;5.77;;;;;;;;;;5034132;28;20423;-85
2021/03/07 07:07:32;;;;;;;7.07;5.30;;;;;;;;;;5045498;28;20488;-85
2021/03/07 07:10:02;;;;;;;6.27;4.80;;;;;;;;;;5050285;28;20446;-84
2021/03/07 07:12:29;;;;;;;8.17;5.70;;;;;;;;;;5043221;28;20510;-84
2021/03/07 07:15:10;;;;;;;6.23;5.40;;;;;;;;;;5051703;28;20430;-84
2021/03/07 07:17:36;;;;;;;7.37;5.63;;;;;;;;;;5047344;28;20471;-84
2021/03/07 07:20:05;;;;;;;7.53;5.57;;;;;;;;;;5049869;28;20910;-84
2021/03/07 07:22:31;;;;;;;6.70;5.50;;;;;;;;;;5039480;28;20493;-84
2021/03/07 07:24:57;;;;;;;6.13;5.30;;;;;;;;;;5039409;28;20810;-84
2021/03/07 07:27:23;;;;;;;6.27;5.10;;;;;;;;;;5040406;28;20420;-85
2021/03/07 07:29:49;;;;;;;9.20;5.80;;;;;;;;;;5042762;28;20442;-85
2021/03/07 07:32:22;;;;;;;5.80;5.20;;;;;;;;;;5043273;28;20423;-85
2021/03/07 07:34:57;;;;;;;6.10;5.50;;;;;;;;;;5036546;28;20883;-85
2021/03/07 07:37:31;;;;;;;6.13;5.53;;;;;;;;;;5033122;28;20434;-85
2021/03/07 07:39:57;;;;;;;6.97;5.33;;;;;;;;;;5049975;28;20455;-84
2021/03/07 07:42:25;;;;;;;6.37;5.50;;;;;;;;;;5038476;28;20411;-85
2021/03/07 07:44:52;;;;;;;8.23;6.20;;;;;;;;;;5075445;28;20472;-85
2021/03/07 07:47:18;;;;;;;9.90;5.67;;;;;;;;;;5058549;28;20434;-85
2021/03/07 07:49:45;;;;;;;8.97;5.83;;;;;;;;;;5075995;28;20739;-85
2021/03/07 07:52:27;;;;;;;7.00;5.43;;;;;;;;;;5058608;28;20414;-85
2021/03/07 07:55:00;;;;;;;6.10;5.40;;;;;;;;;;5049306;28;20407;-85
2021/03/07 07:57:47;;;;;;;6.63;5.20;;;;;;;;;;5058644;28;20470;-85
2021/03/07 08:00:16;;;;;;;6.23;5.00;;;;;;;;;;5045960;28;20447;-85
2021/03/07 08:02:45;;;;;;;6.47;5.23;;;;;;;;;;5054078;28;20439;-85
2021/03/07 08:05:20;;;;;;;6.27;5.67;;;;;;;;;;5058906;28;20419;-85
2021/03/07 08:08:00;;;;;;;7.07;5.13;;;;;;;;;;5075780;28;20800;-84
2021/03/07 08:10:52;;;;;;;7.00;5.17;;;;;;;;;;5076516;28;20434;-84
2021/03/07 08:13:27;;;;;;;6.30;5.40;;;;;;;;;;5055043;28;20459;-85
2021/03/07 08:16:00;;;;;;;5.97;4.90;;;;;;;;;;5056588;28;20417;-83
2021/03/07 08:18:45;;;;;;;7.87;5.80;;;;;;;;;;5038835;28;20439;-84
2021/03/07 08:21:11;;;;;;;6.63;4.93;;;;;;;;;;5054678;28;20498;-85
2021/03/07 08:23:53;;;;;;;6.63;5.10;;;;;;;;;;5055672;28;20412;-85
2021/03/07 08:26:19;;;;;;;6.07;5.07;;;;;;;;;;5055262;28;20450;-85
2021/03/07 08:28:45;;;;;;;7.47;5.33;;;;;;;;;;5072362;28;20840;-85
2021/03/07 08:31:21;;;;;;;6.67;5.67;;;;;;;;;;5052918;28;20767;-85
2021/03/07 08:33:47;;;;;;;8.33;5.00;;;;;;;;;;5053345;28;20507;-85
2021/03/07 08:36:17;;;;;;;6.47;5.27;;;;;;;;;;5055172;28;20538;-85
2021/03/07 08:38:52;;;;;;;6.67;5.50;;;;;;;;;;5070786;28;20426;-85
2021/03/07 08:41:19;;;;;;;7.63;5.53;;;;;;;;;;5070535;28;20518;-85
2021/03/07 08:43:47;;;;;;;7.90;6.17;;;;;;;;;;5052481;28;20430;-85
2021/03/07 08:46:14;;;;;;;7.63;5.53;;;;;;;;;;5047043;28;20431;-85
2021/03/07 08:48:41;;;;;;;5.50;4.93;;;;;;;;;;5047148;28;20420;-85
2021/03/07 08:51:08;;;;;;;7.40;5.67;;;;;;;;;;5056604;28;20420;-85
2021/03/07 08:53:36;;;;;;;6.87;5.73;;;;;;;;;;5052214;28;20569;-85
2021/03/07 08:56:02;;;;;;;7.10;5.73;;;;;;;;;;5055140;28;21017;-85
2021/03/07 08:58:29;;;;;;;6.57;5.57;;;;;;;;;;5053177;28;20419;-85
2021/03/07 09:00:56;;;;;;;8.10;5.80;;;;;;;;;;5066104;28;20592;-85
2021/03/07 09:03:23;;;;;;;5.27;4.67;;;;;;;;;;5071507;28;20787;-85
2021/03/07 09:05:49;;;;;;;6.63;4.47;;;;;;;;;;5053715;28;20419;-85
2021/03/07 09:08:15;;;;;;;6.87;5.57;;;;;;;;;;5070300;28;20422;-85
2021/03/07 09:10:43;;;;;;;8.53;5.27;;;;;;;;;;5052194;28;20461;-86
2021/03/07 09:13:12;;;;;;;7.70;5.73;;;;;;;;;;5054974;28;20802;-85
2021/03/07 09:15:38;;;;;;;6.50;5.10;;;;;;;;;;5051797;28;20434;-85
2021/03/07 09:18:05;;;;;;;5.77;4.97;;;;;;;;;;5073200;28;20434;-85
2021/03/07 09:20:49;;;;;;;7.27;4.70;;;;;;;;;;5055414;28;20461;-85
2021/03/07 09:23:35;;;;;;;4.60;4.20;;;;;;;;;;5072430;28;20419;-86
2021/03/07 09:26:02;;;;;;;6.13;4.27;;;;;;;;;;5047313;28;20422;-85
2021/03/07 09:28:55;;;;;;;5.20;4.07;;;;;;;;;;5042836;28;20431;-85
2021/03/07 09:31:23;;;;;;;4.97;3.80;;;;;;;;;;5042637;28;20442;-85
2021/03/07 09:33:49;;;;;;;5.53;4.53;;;;;;;;;;5064518;28;20443;-85
2021/03/07 09:36:15;;;;;;;5.40;4.10;;;;;;;;;;5047597;28;20435;-85
2021/03/07 09:38:47;;;;;;;6.40;4.40;;;;;;;;;;5066447;28;20430;-85
2021/03/07 09:41:14;;;;;;;5.20;4.10;;;;;;;;;;5049519;28;20992;-85
2021/03/07 09:43:43;;;;;;;6.10;4.07;;;;;;;;;;5050910;28;20423;-85
2021/03/07 09:46:10;;;;;;;3.90;3.40;;;;;;;;;;5070574;28;20897;-85
2021/03/07 09:48:37;;;;;;;4.83;3.50;;;;;;;;;;5051686;28;21059;-85
2021/03/07 09:51:04;;;;;;;4.20;3.67;;;;;;;;;;5052072;28;20435;-85
2021/03/07 09:53:31;;;;;;;4.83;3.17;;;;;;;;;;5059531;28;20481;-84
2021/03/07 09:55:57;;;;;;;4.23;3.27;;;;;;;;;;5054570;28;20790;-85
2021/03/07 09:58:23;;;;;;;4.87;3.43;;;;;;;;;;5054860;28;20435;-85
2021/03/07 10:00:50;;;;;;;5.73;3.40;;;;;;;;;;5050177;28;20473;-85
2021/03/07 10:03:23;;;;;;;4.37;3.53;;;;;;;;;;5051974;28;20268;-85
2021/03/07 10:06:08;;;;;;;4.50;3.50;;;;;;;;;;5067428;28;20462;-85
2021/03/07 10:08:35;;;;;;;3.50;2.93;;;;;;;;;;5046526;28;20434;-87
2021/03/07 10:11:08;;;;;;;3.73;3.10;;;;;;;;;;5055456;28;20439;-87
2021/03/07 10:13:34;;;;;;;4.30;2.80;;;;;;;;;;5062348;28;20410;-87
2021/03/07 10:16:01;;;;;;;4.13;3.13;;;;;;;;;;5053438;28;20176;-86
2021/03/07 10:18:27;;;;;;;6.27;3.27;;;;;;;;;;5047322;28;20278;-83
2021/03/07 10:20:57;;;;;;;3.43;2.77;;;;;;;;;;5059798;28;20653;-85
2021/03/07 10:23:27;;;;;;;5.13;3.27;;;;;;;;;;5056483;28;20173;-85
2021/03/07 10:25:53;;;;;;;8.63;4.60;;;;;;;;;;5073792;28;20176;-85
2021/03/07 10:28:23;;;;;;;8.77;4.60;;;;;;;;;;5055877;28;20176;-85
2021/03/07 10:30:50;;;;;;;6.77;4.53;;;;;;;;;;5071179;28;20719;-85
2021/03/07 10:33:35;;;;;;;6.50;5.90;;;;;;;;;;5065537;28;20207;-82
2021/03/07 10:36:06;;;;;;;7.30;6.60;;;;;;;;;;5054502;28;20176;-86
2021/03/07 10:38:37;;;;;;;7.13;5.83;;;;;;;;;;5063758;28;20188;-86
2021/03/07 10:41:21;;;;;;;7.03;5.17;;;;;;;;;;5053529;28;20211;-86
2021/03/07 10:43:48;;;;;;;6.53;5.43;;;;;;;;;;5053084;28;20184;-86
2021/03/07 10:46:43;;;;;;;4.93;4.50;;;;;;;;;;5069877;28;20179;-87
2021/03/07 10:49:10;;;;;;;5.80;4.10;;;;;;;;;;5035953;28;20217;-87
2021/03/07 10:51:36;;;;;;;5.17;4.10;;;;;;;;;;5045642;28;20188;-87
2021/03/07 10:54:05;;;;;;;4.13;3.50;;;;;;;;;;5056606;28;20173;-85
2021/03/07 10:56:33;;;;;;;4.27;3.40;;;;;;;;;;5049024;28;20192;-86
2021/03/07 10:58:59;;;;;;;3.60;3.30;;;;;;;;;;5048924;28;20177;-86
2021/03/07 11:01:25;;;;;;;6.17;4.17;;;;;;;;;;5049260;28;20203;-85
2021/03/07 11:03:51;;;;;;;5.77;4.30;;;;;;;;;;5045251;28;20496;-85
2021/03/07 11:06:19;;;;;;;4.57;3.93;;;;;;;;;;5043676;28;20242;-85
2021/03/07 11:08:45;;;;;;;4.43;4.03;;;;;;;;;;5051289;28;20199;-86
2021/03/07 11:11:11;;;;;;;4.87;4.17;;;;;;;;;;5050463;28;20211;-87
2021/03/07 11:13:37;;;;;;;6.87;4.77;;;;;;;;;;5043876;28;20181;-87
2021/03/07 11:16:04;;;;;;;6.13;4.90;;;;;;;;;;5045001;28;20181;-87
2021/03/07 11:18:30;;;;;;;5.73;4.90;;;;;;;;;;5049242;28;20304;-87
2021/03/07 11:20:56;;;;;;;6.23;5.30;;;;;;;;;;5073100;28;20210;-87
2021/03/07 11:23:22;;;;;;;6.87;5.57;;;;;;;;;;5051792;28;20642;-87
2021/03/07 11:25:49;;;;;;;6.57;5.90;;;;;;;;;;5043552;28;20223;-87
2021/03/07 11:28:15;;;;;;;5.67;5.17;;;;;;;;;;5070913;28;20173;-87
2021/03/07 11:30:41;;;;;;;6.33;5.53;;;;;;;;;;5047792;28;20254;-87
2021/03/07 11:33:07;;;;;;;9.60;5.80;;;;;;;;;;5067889;28;20202;-87
2021/03/07 11:35:34;;;;;;;6.27;5.67;;;;;;;;;;5050104;28;20184;-87
2021/03/07 11:38:00;;;;;;;7.40;6.07;;;;;;;;;;5055218;28;20183;-87
2021/03/07 11:40:26;;;;;;;7.83;7.03;;;;;;;;;;5052966;28;20269;-87
2021/03/07 11:42:53;;;;;;;9.27;8.37;;;;;;;;;;5054707;28;20180;-87
2021/03/07 11:45:19;;;;;;;9.00;7.73;;;;;;;;;;5051163;28;20272;-87
2021/03/07 11:47:45;;;;;;;10.30;9.30;;;;;;;;;;5043497;28;20272;-87
2021/03/07 11:50:12;;;;;;;13.07;11.67;;;;;;;;;;5053244;28;20224;-88
2021/03/07 11:52:38;;;;;;;11.90;10.53;;;;;;;;;;5064714;28;20517;-88
2021/03/07 11:55:04;;;;;;;13.43;12.03;;;;;;;;;;5055549;28;20191;-88
2021/03/07 11:57:30;;;;;;;19.73;14.17;;;;;;;;;;5056295;28;20252;-87
2021/03/07 11:59:56;;;;;;;14.37;12.90;;;;;;;;;;5044109;28;20208;-88
2021/03/07 12:02:22;;;;;;;12.63;11.33;;;;;;;;;;5047685;28;20664;-87
2021/03/07 12:04:48;;;;;;;11.03;9.93;;;;;;;;;;5030989;28;20193;-87
2021/03/07 12:07:14;;;;;;;9.73;8.47;;;;;;;;;;5070173;28;20308;-87
2021/03/07 12:09:40;;;;;;;11.07;8.57;;;;;;;;;;5043101;28;20691;-87
2021/03/07 12:12:07;;;;;;;9.73;8.80;;;;;;;;;;5070184;28;20208;-87
2021/03/07 12:14:42;;;;;;;9.97;9.07;;;;;;;;;;5084720;28;20185;-88
2021/03/07 12:17:09;;;;;;;9.17;7.70;;;;;;;;;;5053261;28;20689;-88
2021/03/07 12:19:58;;;;;;;8.23;7.43;;;;;;;;;;5057160;28;20413;-87
2021/03/07 12:22:25;;;;;;;7.70;6.90;;;;;;;;;;5048131;28;20557;-84
2021/03/07 12:24:51;;;;;;;9.43;8.27;;;;;;;;;;5056846;28;20168;-84
2021/03/07 12:27:17;;;;;;;7.33;6.53;;;;;;;;;;5052301;28;20537;-84
2021/03/07 12:29:43;;;;;;;9.97;7.20;;;;;;;;;;5047345;28;20180;-84
2021/03/07 12:32:10;;;;;;;6.50;5.90;;;;;;;;;;5058933;28;20891;-85
2021/03/07 12:34:36;;;;;;;5.88;5.35;;;;;;;;;;5054405;28;20681;-85
2021/03/07 12:37:02;;;;;;;4.90;4.50;;;;;;;;;;5056659;28;20329;-85
2021/03/07 12:39:28;;;;;;;3.90;3.43;;;;;;;;;;5057210;28;20192;-85
2021/03/07 12:41:54;;;;;;;4.77;3.50;;;;;;;;;;5050358;28;20236;-85
2021/03/07 12:44:20;;;;;;;3.70;3.30;;;;;;;;;;5046521;28;20185;-85
2021/03/07 12:46:47;;;;;;;5.13;2.40;;;;;;;;;;5064140;28;20168;-87
2021/03/07 12:49:16;;;;;;;3.70;2.57;;;;;;;;;;5059552;28;20582;-85
2021/03/07 12:51:42;;;;;;;3.10;2.80;;;;;;;;;;5060476;28;20181;-85
2021/03/07 12:54:10;;;;;;;3.03;2.40;;;;;;;;;;5065159;28;20208;-84
2021/03/07 12:56:39;;;;;;;4.87;3.80;;;;;;;;;;5082369;28;20274;-88
2021/03/07 12:59:06;;;;;;;4.20;3.77;;;;;;;;;;5060555;28;20208;-86
2021/03/07 13:01:32;;;;;;;6.10;5.50;;;;;;;;;;5058301;28;20200;-86
2021/03/07 13:03:58;;;;;;;5.17;4.67;;;;;;;;;;5056354;28;20793;-85
2021/03/07 13:06:24;;;;;;;4.27;3.87;;;;;;;;;;5053507;28;20213;-85
2021/03/07 13:08:50;;;;;;;3.57;3.17;;;;;;;;;;5055236;28;20207;-83
2021/03/07 13:11:16;;;;;;;4.17;3.20;;;;;;;;;;5046333;28;20193;-87
2021/03/07 13:13:42;;;;;;;3.20;2.87;;;;;;;;;;5050078;28;20267;-86
2021/03/07 13:16:08;;;;;;;4.10;2.80;;;;;;;;;;5057690;28;20184;-86
2021/03/07 13:18:34;;;;;;;3.27;2.87;;;;;;;;;;5066365;28;20184;-85
2021/03/07 13:21:02;;;;;;;4.30;2.77;;;;;;;;;;5053376;28;20263;-85
2021/03/07 13:23:28;;;;;;;3.23;2.93;;;;;;;;;;5051626;28;20169;-85
2021/03/07 13:25:54;;;;;;;3.30;3.00;;;;;;;;;;5057464;28;20263;-85
2021/03/07 13:28:20;;;;;;;3.30;3.00;;;;;;;;;;5041895;28;20215;-85
2021/03/07 13:30:46;;;;;;;4.87;4.37;;;;;;;;;;5049583;28;20192;-85
2021/03/07 13:33:12;;;;;;;4.83;4.10;;;;;;;;;;5044671;28;20264;-85
2021/03/07 13:35:39;;;;;;;3.90;3.30;;;;;;;;;;5035386;28;20245;-86
2021/03/07 13:38:05;;;;;;;5.03;3.50;;;;;;;;;;5052221;28;20203;-86
2021/03/07 13:40:32;;;;;;;4.10;3.23;;;;;;;;;;5050875;28;20245;-87
2021/03/07 13:42:58;;;;;;;3.53;3.23;;;;;;;;;;5056673;28;20183;-82
2021/03/07 13:45:29;;;;;;;3.43;3.13;;;;;;;;;;5055828;28;20172;-82
2021/03/07 13:47:55;;;;;;;3.93;3.47;;;;;;;;;;5056430;28;20217;-84
2021/03/07 13:50:21;;;;;;;3.50;2.73;;;;;;;;;;5048073;28;20572;-85
2021/03/07 13:52:47;;;;;;;4.63;3.07;;;;;;;;;;5052975;28;20185;-84
2021/03/07 13:55:14;;;;;;;4.00;2.90;;;;;;;;;;5052501;28;20181;-84
2021/03/07 13:57:40;;;;;;;5.87;3.07;;;;;;;;;;5054770;28;20173;-84
2021/03/07 14:00:07;;;;;;;4.83;3.13;;;;;;;;;;5052834;28;20169;-84
2021/03/07 14:02:33;;;;;;;5.70;2.50;;;;;;;;;;5054513;28;20173;-84
2021/03/07 14:05:00;;;;;;;3.13;2.70;;;;;;;;;;5051207;28;20207;-84
2021/03/07 14:07:26;;;;;;;6.23;2.80;;;;;;;;;;5053832;28;20177;-84
2021/03/07 14:09:53;;;;;;;4.33;3.00;;;;;;;;;;5053040;28;20189;-84
2021/03/07 14:12:19;;;;;;;3.80;2.70;;;;;;;;;;5054162;28;20173;-85
2021/03/07 14:14:45;;;;;;;4.43;2.50;;;;;;;;;;5052025;28;20497;-83
2021/03/07 14:17:11;;;;;;;4.47;3.03;;;;;;;;;;5048391;28;20169;-82
2021/03/07 14:19:37;;;;;;;2.73;2.50;;;;;;;;;;5033964;28;20178;-82
2021/03/07 14:22:03;;;;;;;4.77;2.30;;;;;;;;;;5052100;28;20613;-83
2021/03/07 14:24:29;;;;;;;2.60;2.40;;;;;;;;;;5048673;28;20330;-83
2021/03/07 14:26:56;;;;;;;5.77;2.37;;;;;;;;;;5053085;28;20596;-82
2021/03/07 14:29:22;;;;;;;2.80;2.30;;;;;;;;;;5052388;28;20181;-82
2021/03/07 14:31:48;;;;;;;3.67;2.23;;;;;;;;;;5052326;28;20181;-82
2021/03/07 14:34:14;;;;;;;3.60;2.00;;;;;;;;;;5048366;28;20185;-83
2021/03/07 14:36:40;;;;;;;13.63;3.40;;;;;;;;;;5052309;28;20185;-82
2021/03/07 14:39:06;;;;;;;5.30;2.77;;;;;;;;;;5053931;28;20549;-83
2021/03/07 14:41:32;;;;;;;6.13;2.30;;;;;;;;;;5053981;28;20199;-83
2021/03/07 14:43:58;;;;;;;2.43;2.17;;;;;;;;;;5051140;28;20192;-81
2021/03/07 14:46:24;;;;;;;4.30;2.50;;;;;;;;;;5047216;28;20299;-83